sensor_id;sensor_type;location;lat;lon;timestamp;temperature;humidity
55648;DHT22;45266;48.756;9.246;2023-08-31T00:01:00;13.80;99.90
55648;DHT22;45266;48.756;9.246;2023-08-31T00:02:02;13.80;99.90
55648;DHT22;45266;48.756;9.246;2023-08-31T00:03:05;13.90;99.90
55648;DHT22;45266;48.756;9.246;2023-08-31T00:04:07;13.90;99.90
55648;DHT22;45266;48.756;9.246;2023-08-31T00:05:16;13.80;99.90
55648;DHT22;45266;48.756;9.246;2023-08-31T00:06:18;13.90;99.90
55648;DHT22;45266;48.756;9.246;2023-08-31T00:07:21;13.90;99.90
55648;DHT22;45266;48.756;9.246;2023-08-31T00:08:23;13.80;99.90
55648;DHT22;45266;48.756;9.246;2023-08-31T00:09:25;13.80;99.90
55648;DHT22;45266;48.756;9.246;2023-08-31T00:10:26;13.80;99.90
55648;DHT22;45266;48.756;9.246;2023-08-31T00:11:28;13.80;99.90
55648;DHT22;45266;48.756;9.246;2023-08-31T00:12:31;13.80;99.90
55648;DHT22;45266;48.756;9.246;2023-08-31T00:13:33;13.80;99.90
55648;DHT22;45266;48.756;9.246;2023-08-31T00:14:35;13.80;99.90
55648;DHT22;45266;48.756;9.246;2023-08-31T00:15:39;13.80;99.90
55648;DHT22;45266;48.756;9.246;2023-08-31T00:16:43;13.80;99.90
55648;DHT22;45266;48.756;9.246;2023-08-31T00:17:47;13.80;99.90
55648;DHT22;45266;48.756;9.246;2023-08-31T00:18:49;13.80;99.90
55648;DHT22;45266;48.756;9.246;2023-08-31T00:19:50;13.60;99.90
55648;DHT22;45266;48.756;9.246;2023-08-31T00:20:52;13.80;99.90
55648;DHT22;45266;48.756;9.246;2023-08-31T00:21:54;13.80;99.90
55648;DHT22;45266;48.756;9.246;2023-08-31T00:22:56;13.70;99.90
55648;DHT22;45266;48.756;9.246;2023-08-31T00:23:58;13.80;99.90
55648;DHT22;45266;48.756;9.246;2023-08-31T00:25:00;13.70;99.90
55648;DHT22;45266;48.756;9.246;2023-08-31T00:26:02;13.80;99.90
55648;DHT22;45266;48.756;9.246;2023-08-31T00:27:04;13.70;99.90
55648;DHT22;45266;48.756;9.246;2023-08-31T00:28:08;13.70;99.90
55648;DHT22;45266;48.756;9.246;2023-08-31T00:29:11;13.70;99.90
55648;DHT22;45266;48.756;9.246;2023-08-31T00:30:13;13.70;99.90
55648;DHT22;45266;48.756;9.246;2023-08-31T00:31:15;13.70;99.90
55648;DHT22;45266;48.756;9.246;2023-08-31T00:32:17;13.70;99.90
55648;DHT22;45266;48.756;9.246;2023-08-31T00:33:26;13.70;99.90
55648;DHT22;45266;48.756;9.246;2023-08-31T00:34:28;13.70;99.90
55648;DHT22;45266;48.756;9.246;2023-08-31T00:35:30;13.70;99.90
55648;DHT22;45266;48.756;9.246;2023-08-31T00:36:31;13.60;99.90
55648;DHT22;45266;48.756;9.246;2023-08-31T00:37:33;13.60;99.90
55648;DHT22;45266;48.756;9.246;2023-08-31T00:38:35;13.60;99.90
55648;DHT22;45266;48.756;9.246;2023-08-31T00:39:37;13.60;99.90
55648;DHT22;45266;48.756;9.246;2023-08-31T00:40:40;13.60;99.90
55648;DHT22;45266;48.756;9.246;2023-08-31T00:41:48;13.60;99.90
55648;DHT22;45266;48.756;9.246;2023-08-31T00:42:51;13.60;99.90
55648;DHT22;45266;48.756;9.246;2023-08-31T00:43:53;13.60;99.90
55648;DHT22;45266;48.756;9.246;2023-08-31T00:44:55;13.60;99.90
55648;DHT22;45266;48.756;9.246;2023-08-31T00:45:57;13.60;99.90
55648;DHT22;45266;48.756;9.246;2023-08-31T00:47:00;13.60;99.90
55648;DHT22;45266;48.756;9.246;2023-08-31T00:48:04;13.60;99.90
55648;DHT22;45266;48.756;9.246;2023-08-31T00:49:07;13.50;99.90
55648;DHT22;45266;48.756;9.246;2023-08-31T00:50:10;13.50;99.90
55648;DHT22;45266;48.756;9.246;2023-08-31T00:51:12;13.50;99.90
55648;DHT22;45266;48.756;9.246;2023-08-31T00:52:15;13.60;99.90
55648;DHT22;45266;48.756;9.246;2023-08-31T00:53:17;13.60;99.90
55648;DHT22;45266;48.756;9.246;2023-08-31T00:54:19;13.50;99.90
55648;DHT22;45266;48.756;9.246;2023-08-31T00:55:24;13.50;99.90
55648;DHT22;45266;48.756;9.246;2023-08-31T00:56:26;13.40;99.90
55648;DHT22;45266;48.756;9.246;2023-08-31T00:57:28;13.40;99.90
55648;DHT22;45266;48.756;9.246;2023-08-31T00:58:30;13.40;99.90
55648;DHT22;45266;48.756;9.246;2023-08-31T00:59:32;13.40;99.90
55648;DHT22;45266;48.756;9.246;2023-08-31T01:01:06;13.40;99.90
55648;DHT22;45266;48.756;9.246;2023-08-31T01:05:24;13.30;99.90
55648;DHT22;45266;48.756;9.246;2023-08-31T01:06:51;13.30;99.90
55648;DHT22;45266;48.756;9.246;2023-08-31T01:08:19;13.30;99.90
55648;DHT22;45266;48.756;9.246;2023-08-31T01:09:44;13.30;99.90
55648;DHT22;45266;48.756;9.246;2023-08-31T01:12:04;13.20;99.90
55648;DHT22;45266;48.756;9.246;2023-08-31T01:13:12;13.10;99.90
55648;DHT22;45266;48.756;9.246;2023-08-31T01:14:19;13.20;99.90
55648;DHT22;45266;48.756;9.246;2023-08-31T01:15:25;13.10;99.90
55648;DHT22;45266;48.756;9.246;2023-08-31T01:16:29;13.10;99.90
55648;DHT22;45266;48.756;9.246;2023-08-31T01:17:33;13.10;99.90
55648;DHT22;45266;48.756;9.246;2023-08-31T01:18:40;13.10;99.90
55648;DHT22;45266;48.756;9.246;2023-08-31T01:21:06;13.00;99.90
55648;DHT22;45266;48.756;9.246;2023-08-31T01:22:15;12.90;99.90
55648;DHT22;45266;48.756;9.246;2023-08-31T01:23:21;12.90;99.90
55648;DHT22;45266;48.756;9.246;2023-08-31T01:24:30;12.90;99.90
55648;DHT22;45266;48.756;9.246;2023-08-31T01:25:33;12.90;99.90
55648;DHT22;45266;48.756;9.246;2023-08-31T01:26:35;12.80;99.90
55648;DHT22;45266;48.756;9.246;2023-08-31T01:27:38;12.80;99.90
55648;DHT22;45266;48.756;9.246;2023-08-31T01:28:40;12.80;99.90
55648;DHT22;45266;48.756;9.246;2023-08-31T01:29:41;12.80;99.90
55648;DHT22;45266;48.756;9.246;2023-08-31T01:30:43;12.80;99.90
55648;DHT22;45266;48.756;9.246;2023-08-31T01:31:45;12.70;99.90
55648;DHT22;45266;48.756;9.246;2023-08-31T01:32:47;12.70;99.90
55648;DHT22;45266;48.756;9.246;2023-08-31T01:33:49;12.70;99.90
55648;DHT22;45266;48.756;9.246;2023-08-31T01:34:51;12.70;99.90
55648;DHT22;45266;48.756;9.246;2023-08-31T01:35:55;12.60;99.90
55648;DHT22;45266;48.756;9.246;2023-08-31T01:37:01;12.60;99.90
55648;DHT22;45266;48.756;9.246;2023-08-31T01:38:05;12.60;99.90
55648;DHT22;45266;48.756;9.246;2023-08-31T01:39:12;12.60;99.90
55648;DHT22;45266;48.756;9.246;2023-08-31T01:41:22;12.60;99.90
55648;DHT22;45266;48.756;9.246;2023-08-31T01:42:26;12.50;99.90
55648;DHT22;45266;48.756;9.246;2023-08-31T01:43:31;12.50;99.90
55648;DHT22;45266;48.756;9.246;2023-08-31T01:44:36;12.50;99.90
55648;DHT22;45266;48.756;9.246;2023-08-31T01:45:39;12.50;99.90
55648;DHT22;45266;48.756;9.246;2023-08-31T01:46:42;12.50;99.90
55648;DHT22;45266;48.756;9.246;2023-08-31T01:47:44;12.50;99.90
55648;DHT22;45266;48.756;9.246;2023-08-31T01:48:46;12.50;99.90
55648;DHT22;45266;48.756;9.246;2023-08-31T01:49:48;12.40;99.90
55648;DHT22;45266;48.756;9.246;2023-08-31T01:50:50;12.40;99.90
55648;DHT22;45266;48.756;9.246;2023-08-31T01:51:51;12.40;99.90
55648;DHT22;45266;48.756;9.246;2023-08-31T01:52:53;12.40;99.90
55648;DHT22;45266;48.756;9.246;2023-08-31T01:53:55;12.40;99.90
55648;DHT22;45266;48.756;9.246;2023-08-31T01:54:57;12.40;99.90
55648;DHT22;45266;48.756;9.246;2023-08-31T01:55:59;12.30;99.90
55648;DHT22;45266;48.756;9.246;2023-08-31T01:57:01;12.30;99.90
55648;DHT22;45266;48.756;9.246;2023-08-31T01:58:04;12.30;99.90
55648;DHT22;45266;48.756;9.246;2023-08-31T01:59:06;12.30;99.90
55648;DHT22;45266;48.756;9.246;2023-08-31T02:00:11;12.30;99.90
55648;DHT22;45266;48.756;9.246;2023-08-31T02:01:14;12.30;99.90
55648;DHT22;45266;48.756;9.246;2023-08-31T02:02:15;12.30;99.90
55648;DHT22;45266;48.756;9.246;2023-08-31T02:03:17;12.40;99.90
55648;DHT22;45266;48.756;9.246;2023-08-31T02:04:19;12.40;99.90
55648;DHT22;45266;48.756;9.246;2023-08-31T02:05:21;12.40;99.90
55648;DHT22;45266;48.756;9.246;2023-08-31T02:06:23;12.40;99.90
55648;DHT22;45266;48.756;9.246;2023-08-31T02:07:24;12.40;99.90
55648;DHT22;45266;48.756;9.246;2023-08-31T02:08:26;12.40;99.90
55648;DHT22;45266;48.756;9.246;2023-08-31T02:09:28;12.40;99.90
55648;DHT22;45266;48.756;9.246;2023-08-31T02:10:30;12.40;99.90
55648;DHT22;45266;48.756;9.246;2023-08-31T02:11:32;12.40;99.90
55648;DHT22;45266;48.756;9.246;2023-08-31T02:12:37;12.40;99.90
55648;DHT22;45266;48.756;9.246;2023-08-31T02:13:40;12.40;99.90
55648;DHT22;45266;48.756;9.246;2023-08-31T02:14:42;12.40;99.90
55648;DHT22;45266;48.756;9.246;2023-08-31T02:15:44;12.40;99.90
55648;DHT22;45266;48.756;9.246;2023-08-31T02:16:46;12.50;99.90
55648;DHT22;45266;48.756;9.246;2023-08-31T02:17:48;12.50;99.90
55648;DHT22;45266;48.756;9.246;2023-08-31T02:18:50;12.50;99.90
55648;DHT22;45266;48.756;9.246;2023-08-31T02:19:51;12.50;99.90
55648;DHT22;45266;48.756;9.246;2023-08-31T02:20:54;12.50;99.90
55648;DHT22;45266;48.756;9.246;2023-08-31T02:21:56;12.50;99.90
55648;DHT22;45266;48.756;9.246;2023-08-31T02:22:58;12.50;99.90
55648;DHT22;45266;48.756;9.246;2023-08-31T02:24:00;12.50;99.90
55648;DHT22;45266;48.756;9.246;2023-08-31T02:25:02;12.50;99.90
55648;DHT22;45266;48.756;9.246;2023-08-31T02:26:05;12.50;99.90
55648;DHT22;45266;48.756;9.246;2023-08-31T02:27:06;12.50;99.90
55648;DHT22;45266;48.756;9.246;2023-08-31T02:28:08;12.50;99.90
55648;DHT22;45266;48.756;9.246;2023-08-31T02:29:10;12.50;99.90
55648;DHT22;45266;48.756;9.246;2023-08-31T02:30:12;12.50;99.90
55648;DHT22;45266;48.756;9.246;2023-08-31T02:31:16;12.50;99.90
55648;DHT22;45266;48.756;9.246;2023-08-31T02:32:18;12.50;99.90
55648;DHT22;45266;48.756;9.246;2023-08-31T02:33:20;12.50;99.90
55648;DHT22;45266;48.756;9.246;2023-08-31T02:34:22;12.50;99.90
55648;DHT22;45266;48.756;9.246;2023-08-31T02:35:23;12.50;99.90
55648;DHT22;45266;48.756;9.246;2023-08-31T02:36:25;12.50;99.90
55648;DHT22;45266;48.756;9.246;2023-08-31T02:37:27;12.50;99.90
55648;DHT22;45266;48.756;9.246;2023-08-31T02:38:29;12.50;99.90
55648;DHT22;45266;48.756;9.246;2023-08-31T02:39:31;12.50;99.90
55648;DHT22;45266;48.756;9.246;2023-08-31T02:40:34;12.50;99.90
55648;DHT22;45266;48.756;9.246;2023-08-31T02:41:36;12.50;99.90
55648;DHT22;45266;48.756;9.246;2023-08-31T02:42:38;12.50;99.90
55648;DHT22;45266;48.756;9.246;2023-08-31T02:43:40;12.50;99.90
55648;DHT22;45266;48.756;9.246;2023-08-31T02:44:42;12.50;99.90
55648;DHT22;45266;48.756;9.246;2023-08-31T02:45:43;12.50;99.90
55648;DHT22;45266;48.756;9.246;2023-08-31T02:46:45;12.50;99.90
55648;DHT22;45266;48.756;9.246;2023-08-31T02:47:47;12.50;99.90
55648;DHT22;45266;48.756;9.246;2023-08-31T02:48:51;12.50;99.90
55648;DHT22;45266;48.756;9.246;2023-08-31T02:49:54;12.50;99.90
55648;DHT22;45266;48.756;9.246;2023-08-31T02:50:59;12.50;99.90
55648;DHT22;45266;48.756;9.246;2023-08-31T02:52:04;12.60;99.90
55648;DHT22;45266;48.756;9.246;2023-08-31T02:53:06;12.60;99.90
55648;DHT22;45266;48.756;9.246;2023-08-31T02:54:08;12.60;99.90
55648;DHT22;45266;48.756;9.246;2023-08-31T02:55:10;12.60;99.90
55648;DHT22;45266;48.756;9.246;2023-08-31T02:56:12;12.60;99.90
55648;DHT22;45266;48.756;9.246;2023-08-31T02:57:14;12.60;99.90
55648;DHT22;45266;48.756;9.246;2023-08-31T02:58:17;12.60;99.90
55648;DHT22;45266;48.756;9.246;2023-08-31T02:59:19;12.60;99.90
55648;DHT22;45266;48.756;9.246;2023-08-31T03:00:21;12.60;99.90
55648;DHT22;45266;48.756;9.246;2023-08-31T03:01:26;12.60;99.90
55648;DHT22;45266;48.756;9.246;2023-08-31T03:02:28;12.70;99.90
55648;DHT22;45266;48.756;9.246;2023-08-31T03:03:30;12.70;99.90
55648;DHT22;45266;48.756;9.246;2023-08-31T03:04:32;12.70;99.90
55648;DHT22;45266;48.756;9.246;2023-08-31T03:05:34;12.70;99.90
55648;DHT22;45266;48.756;9.246;2023-08-31T03:06:36;12.70;99.90
55648;DHT22;45266;48.756;9.246;2023-08-31T03:07:38;12.70;99.90
55648;DHT22;45266;48.756;9.246;2023-08-31T03:08:39;12.70;99.90
55648;DHT22;45266;48.756;9.246;2023-08-31T03:09:41;12.70;99.90
55648;DHT22;45266;48.756;9.246;2023-08-31T03:10:43;12.70;99.90
55648;DHT22;45266;48.756;9.246;2023-08-31T03:11:45;12.70;99.90
55648;DHT22;45266;48.756;9.246;2023-08-31T03:12:47;12.70;99.90
55648;DHT22;45266;48.756;9.246;2023-08-31T03:13:49;12.70;99.90
55648;DHT22;45266;48.756;9.246;2023-08-31T03:14:51;12.70;99.90
55648;DHT22;45266;48.756;9.246;2023-08-31T03:15:53;12.70;99.90
55648;DHT22;45266;48.756;9.246;2023-08-31T03:16:55;12.70;99.90
55648;DHT22;45266;48.756;9.246;2023-08-31T03:17:56;12.70;99.90
55648;DHT22;45266;48.756;9.246;2023-08-31T03:18:58;12.60;99.90
55648;DHT22;45266;48.756;9.246;2023-08-31T03:20:00;12.70;99.90
55648;DHT22;45266;48.756;9.246;2023-08-31T03:21:02;12.60;99.90
55648;DHT22;45266;48.756;9.246;2023-08-31T03:22:04;12.60;99.90
55648;DHT22;45266;48.756;9.246;2023-08-31T03:23:06;12.60;99.90
55648;DHT22;45266;48.756;9.246;2023-08-31T03:24:08;12.60;99.90
55648;DHT22;45266;48.756;9.246;2023-08-31T03:25:09;12.60;99.90
55648;DHT22;45266;48.756;9.246;2023-08-31T03:26:11;12.60;99.90
55648;DHT22;45266;48.756;9.246;2023-08-31T03:27:13;12.60;99.90
55648;DHT22;45266;48.756;9.246;2023-08-31T03:28:15;12.60;99.90
55648;DHT22;45266;48.756;9.246;2023-08-31T03:29:19;12.60;99.90
55648;DHT22;45266;48.756;9.246;2023-08-31T03:30:21;12.60;99.90
55648;DHT22;45266;48.756;9.246;2023-08-31T03:31:22;12.60;99.90
55648;DHT22;45266;48.756;9.246;2023-08-31T03:32:24;12.50;99.90
55648;DHT22;45266;48.756;9.246;2023-08-31T03:33:26;12.50;99.90
55648;DHT22;45266;48.756;9.246;2023-08-31T03:34:31;12.50;99.90
55648;DHT22;45266;48.756;9.246;2023-08-31T03:35:33;12.50;99.90
55648;DHT22;45266;48.756;9.246;2023-08-31T03:36:35;12.50;99.90
55648;DHT22;45266;48.756;9.246;2023-08-31T03:37:37;12.50;99.90
55648;DHT22;45266;48.756;9.246;2023-08-31T03:38:39;12.40;99.90
55648;DHT22;45266;48.756;9.246;2023-08-31T03:39:42;12.40;99.90
55648;DHT22;45266;48.756;9.246;2023-08-31T03:40:55;12.40;99.90
55648;DHT22;45266;48.756;9.246;2023-08-31T03:41:57;12.40;99.90
55648;DHT22;45266;48.756;9.246;2023-08-31T03:42:59;12.40;99.90
55648;DHT22;45266;48.756;9.246;2023-08-31T03:44:01;12.40;99.90
55648;DHT22;45266;48.756;9.246;2023-08-31T03:45:04;12.30;99.90
55648;DHT22;45266;48.756;9.246;2023-08-31T03:46:06;12.30;99.90
55648;DHT22;45266;48.756;9.246;2023-08-31T03:47:08;12.30;99.90
55648;DHT22;45266;48.756;9.246;2023-08-31T03:48:10;12.20;99.90
55648;DHT22;45266;48.756;9.246;2023-08-31T03:49:12;12.20;99.90
55648;DHT22;45266;48.756;9.246;2023-08-31T03:50:14;12.20;99.90
55648;DHT22;45266;48.756;9.246;2023-08-31T03:51:16;12.20;99.90
55648;DHT22;45266;48.756;9.246;2023-08-31T03:52:18;12.20;99.90
55648;DHT22;45266;48.756;9.246;2023-08-31T03:53:20;12.20;99.90
55648;DHT22;45266;48.756;9.246;2023-08-31T03:54:22;12.20;99.90
55648;DHT22;45266;48.756;9.246;2023-08-31T03:55:24;12.20;99.90
55648;DHT22;45266;48.756;9.246;2023-08-31T03:56:25;12.20;99.90
55648;DHT22;45266;48.756;9.246;2023-08-31T03:57:28;12.20;99.90
55648;DHT22;45266;48.756;9.246;2023-08-31T03:58:30;12.10;99.90
55648;DHT22;45266;48.756;9.246;2023-08-31T03:59:32;12.20;99.90
55648;DHT22;45266;48.756;9.246;2023-08-31T04:00:34;12.20;99.90
55648;DHT22;45266;48.756;9.246;2023-08-31T04:01:36;12.20;99.90
55648;DHT22;45266;48.756;9.246;2023-08-31T04:02:38;12.20;99.90
55648;DHT22;45266;48.756;9.246;2023-08-31T04:03:42;12.20;99.90
55648;DHT22;45266;48.756;9.246;2023-08-31T04:04:44;12.20;99.90
55648;DHT22;45266;48.756;9.246;2023-08-31T04:05:46;12.20;99.90
55648;DHT22;45266;48.756;9.246;2023-08-31T04:06:48;12.20;99.90
55648;DHT22;45266;48.756;9.246;2023-08-31T04:07:50;12.20;99.90
55648;DHT22;45266;48.756;9.246;2023-08-31T04:08:52;12.20;99.90
55648;DHT22;45266;48.756;9.246;2023-08-31T04:09:53;12.20;99.90
55648;DHT22;45266;48.756;9.246;2023-08-31T04:10:55;12.20;99.90
55648;DHT22;45266;48.756;9.246;2023-08-31T04:11:58;12.20;99.90
55648;DHT22;45266;48.756;9.246;2023-08-31T04:13:00;12.20;99.90
55648;DHT22;45266;48.756;9.246;2023-08-31T04:14:01;12.10;99.90
55648;DHT22;45266;48.756;9.246;2023-08-31T04:15:03;12.20;99.90
55648;DHT22;45266;48.756;9.246;2023-08-31T04:16:06;12.20;99.90
55648;DHT22;45266;48.756;9.246;2023-08-31T04:17:08;12.20;99.90
55648;DHT22;45266;48.756;9.246;2023-08-31T04:18:10;12.20;99.90
55648;DHT22;45266;48.756;9.246;2023-08-31T04:19:12;12.20;99.90
55648;DHT22;45266;48.756;9.246;2023-08-31T04:20:14;12.20;99.90
55648;DHT22;45266;48.756;9.246;2023-08-31T04:21:16;12.20;99.90
55648;DHT22;45266;48.756;9.246;2023-08-31T04:22:18;12.10;99.90
55648;DHT22;45266;48.756;9.246;2023-08-31T04:23:20;12.10;99.90
55648;DHT22;45266;48.756;9.246;2023-08-31T04:24:22;12.00;99.90
55648;DHT22;45266;48.756;9.246;2023-08-31T04:25:24;12.10;99.90
55648;DHT22;45266;48.756;9.246;2023-08-31T04:26:26;12.10;99.90
55648;DHT22;45266;48.756;9.246;2023-08-31T04:27:28;12.00;99.90
55648;DHT22;45266;48.756;9.246;2023-08-31T04:28:32;12.10;99.90
55648;DHT22;45266;48.756;9.246;2023-08-31T04:29:34;12.00;99.90
55648;DHT22;45266;48.756;9.246;2023-08-31T04:30:36;12.00;99.90
55648;DHT22;45266;48.756;9.246;2023-08-31T04:31:37;12.00;99.90
55648;DHT22;45266;48.756;9.246;2023-08-31T04:32:40;12.00;99.90
55648;DHT22;45266;48.756;9.246;2023-08-31T04:33:42;12.00;99.90
55648;DHT22;45266;48.756;9.246;2023-08-31T04:34:44;11.90;99.90
55648;DHT22;45266;48.756;9.246;2023-08-31T04:35:46;11.90;99.90
55648;DHT22;45266;48.756;9.246;2023-08-31T04:36:48;11.90;99.90
55648;DHT22;45266;48.756;9.246;2023-08-31T04:37:50;11.90;99.90
55648;DHT22;45266;48.756;9.246;2023-08-31T04:38:51;11.90;99.90
55648;DHT22;45266;48.756;9.246;2023-08-31T04:39:53;11.80;99.90
55648;DHT22;45266;48.756;9.246;2023-08-31T04:40:58;11.90;99.90
55648;DHT22;45266;48.756;9.246;2023-08-31T04:42:00;11.80;99.90
55648;DHT22;45266;48.756;9.246;2023-08-31T04:43:03;11.80;99.90
55648;DHT22;45266;48.756;9.246;2023-08-31T04:44:05;11.80;99.90
55648;DHT22;45266;48.756;9.246;2023-08-31T04:45:07;11.80;99.90
55648;DHT22;45266;48.756;9.246;2023-08-31T04:46:09;11.80;99.90
55648;DHT22;45266;48.756;9.246;2023-08-31T04:47:11;11.80;99.90
55648;DHT22;45266;48.756;9.246;2023-08-31T04:48:13;11.80;99.90
55648;DHT22;45266;48.756;9.246;2023-08-31T04:49:17;11.80;99.90
55648;DHT22;45266;48.756;9.246;2023-08-31T04:50:20;11.70;99.90
55648;DHT22;45266;48.756;9.246;2023-08-31T04:51:37;11.70;99.90
55648;DHT22;45266;48.756;9.246;2023-08-31T04:52:43;11.70;99.90
55648;DHT22;45266;48.756;9.246;2023-08-31T04:53:45;11.70;99.90
55648;DHT22;45266;48.756;9.246;2023-08-31T04:54:47;11.70;99.90
55648;DHT22;45266;48.756;9.246;2023-08-31T04:55:49;11.70;99.90
55648;DHT22;45266;48.756;9.246;2023-08-31T04:56:51;11.70;99.90
55648;DHT22;45266;48.756;9.246;2023-08-31T04:57:53;11.80;99.90
55648;DHT22;45266;48.756;9.246;2023-08-31T04:58:54;11.80;99.90
55648;DHT22;45266;48.756;9.246;2023-08-31T04:59:56;11.80;99.90
55648;DHT22;45266;48.756;9.246;2023-08-31T05:00:58;11.80;99.90
55648;DHT22;45266;48.756;9.246;2023-08-31T05:02:00;11.70;99.90
55648;DHT22;45266;48.756;9.246;2023-08-31T05:03:02;11.70;99.90
55648;DHT22;45266;48.756;9.246;2023-08-31T05:04:04;11.70;99.90
55648;DHT22;45266;48.756;9.246;2023-08-31T05:05:08;11.80;99.90
55648;DHT22;45266;48.756;9.246;2023-08-31T05:06:09;11.80;99.90
55648;DHT22;45266;48.756;9.246;2023-08-31T05:07:11;11.80;99.90
55648;DHT22;45266;48.756;9.246;2023-08-31T05:08:13;11.80;99.90
55648;DHT22;45266;48.756;9.246;2023-08-31T05:09:15;11.80;99.90
55648;DHT22;45266;48.756;9.246;2023-08-31T05:10:17;11.90;99.90
55648;DHT22;45266;48.756;9.246;2023-08-31T05:11:19;11.90;99.90
55648;DHT22;45266;48.756;9.246;2023-08-31T05:12:20;11.90;99.90
55648;DHT22;45266;48.756;9.246;2023-08-31T05:13:22;11.90;99.90
55648;DHT22;45266;48.756;9.246;2023-08-31T05:14:24;11.90;99.90
55648;DHT22;45266;48.756;9.246;2023-08-31T05:15:27;11.90;99.90
55648;DHT22;45266;48.756;9.246;2023-08-31T05:16:30;11.90;99.90
55648;DHT22;45266;48.756;9.246;2023-08-31T05:17:33;11.90;99.90
55648;DHT22;45266;48.756;9.246;2023-08-31T05:18:37;11.80;99.90
55648;DHT22;45266;48.756;9.246;2023-08-31T05:19:39;11.80;99.90
55648;DHT22;45266;48.756;9.246;2023-08-31T05:20:45;11.80;99.90
55648;DHT22;45266;48.756;9.246;2023-08-31T05:21:47;11.80;99.90
55648;DHT22;45266;48.756;9.246;2023-08-31T05:22:49;11.90;99.90
55648;DHT22;45266;48.756;9.246;2023-08-31T05:23:51;11.90;99.90
55648;DHT22;45266;48.756;9.246;2023-08-31T05:24:53;11.90;99.90
55648;DHT22;45266;48.756;9.246;2023-08-31T05:25:55;11.90;99.90
55648;DHT22;45266;48.756;9.246;2023-08-31T05:27:00;12.00;99.90
55648;DHT22;45266;48.756;9.246;2023-08-31T05:28:02;12.00;99.90
55648;DHT22;45266;48.756;9.246;2023-08-31T05:29:05;12.00;99.90
55648;DHT22;45266;48.756;9.246;2023-08-31T05:30:07;12.00;99.90
55648;DHT22;45266;48.756;9.246;2023-08-31T05:31:09;12.00;99.90
55648;DHT22;45266;48.756;9.246;2023-08-31T05:32:11;12.10;99.90
55648;DHT22;45266;48.756;9.246;2023-08-31T05:33:13;12.10;99.90
55648;DHT22;45266;48.756;9.246;2023-08-31T05:34:20;12.10;99.90
55648;DHT22;45266;48.756;9.246;2023-08-31T05:35:22;12.10;99.90
55648;DHT22;45266;48.756;9.246;2023-08-31T05:36:24;12.10;99.90
55648;DHT22;45266;48.756;9.246;2023-08-31T05:37:25;12.20;99.90
55648;DHT22;45266;48.756;9.246;2023-08-31T05:38:27;12.20;99.90
55648;DHT22;45266;48.756;9.246;2023-08-31T05:39:29;12.20;99.90
55648;DHT22;45266;48.756;9.246;2023-08-31T05:40:31;12.30;99.90
55648;DHT22;45266;48.756;9.246;2023-08-31T05:41:33;12.30;99.90
55648;DHT22;45266;48.756;9.246;2023-08-31T05:42:36;12.30;99.90
55648;DHT22;45266;48.756;9.246;2023-08-31T05:43:38;12.30;99.90
55648;DHT22;45266;48.756;9.246;2023-08-31T05:44:43;12.30;99.90
55648;DHT22;45266;48.756;9.246;2023-08-31T05:45:45;12.30;99.90
55648;DHT22;45266;48.756;9.246;2023-08-31T05:46:48;12.30;99.90
55648;DHT22;45266;48.756;9.246;2023-08-31T05:47:50;12.30;99.90
55648;DHT22;45266;48.756;9.246;2023-08-31T05:48:52;12.30;99.90
55648;DHT22;45266;48.756;9.246;2023-08-31T05:49:54;12.30;99.90
55648;DHT22;45266;48.756;9.246;2023-08-31T05:50:56;12.40;99.90
55648;DHT22;45266;48.756;9.246;2023-08-31T05:51:58;12.40;99.90
55648;DHT22;45266;48.756;9.246;2023-08-31T05:53:00;12.40;99.90
55648;DHT22;45266;48.756;9.246;2023-08-31T05:54:04;12.40;99.90
55648;DHT22;45266;48.756;9.246;2023-08-31T05:55:07;12.50;99.90
55648;DHT22;45266;48.756;9.246;2023-08-31T05:56:09;12.50;99.90
55648;DHT22;45266;48.756;9.246;2023-08-31T05:57:12;12.50;99.90
55648;DHT22;45266;48.756;9.246;2023-08-31T05:58:14;12.50;99.90
55648;DHT22;45266;48.756;9.246;2023-08-31T05:59:16;12.50;99.90
55648;DHT22;45266;48.756;9.246;2023-08-31T06:00:18;12.50;99.90
55648;DHT22;45266;48.756;9.246;2023-08-31T06:01:20;12.60;99.90
55648;DHT22;45266;48.756;9.246;2023-08-31T06:02:24;12.60;99.90
55648;DHT22;45266;48.756;9.246;2023-08-31T06:03:26;12.60;99.90
55648;DHT22;45266;48.756;9.246;2023-08-31T06:04:28;12.50;99.90
55648;DHT22;45266;48.756;9.246;2023-08-31T06:05:30;12.60;99.90
55648;DHT22;45266;48.756;9.246;2023-08-31T06:06:33;12.70;99.90
55648;DHT22;45266;48.756;9.246;2023-08-31T06:07:35;12.70;99.90
55648;DHT22;45266;48.756;9.246;2023-08-31T06:08:37;12.70;99.90
55648;DHT22;45266;48.756;9.246;2023-08-31T06:09:38;12.70;99.90
55648;DHT22;45266;48.756;9.246;2023-08-31T06:10:40;12.80;99.90
55648;DHT22;45266;48.756;9.246;2023-08-31T06:11:42;12.80;99.90
55648;DHT22;45266;48.756;9.246;2023-08-31T06:12:44;12.80;99.90
55648;DHT22;45266;48.756;9.246;2023-08-31T06:13:46;12.80;99.90
55648;DHT22;45266;48.756;9.246;2023-08-31T06:14:48;12.90;99.90
55648;DHT22;45266;48.756;9.246;2023-08-31T06:15:50;12.90;99.90
55648;DHT22;45266;48.756;9.246;2023-08-31T06:16:52;12.90;99.90
55648;DHT22;45266;48.756;9.246;2023-08-31T06:17:54;12.90;99.90
55648;DHT22;45266;48.756;9.246;2023-08-31T06:18:58;12.90;99.90
55648;DHT22;45266;48.756;9.246;2023-08-31T06:20:00;13.00;99.90
55648;DHT22;45266;48.756;9.246;2023-08-31T06:21:02;13.00;99.90
55648;DHT22;45266;48.756;9.246;2023-08-31T06:22:04;13.00;99.90
55648;DHT22;45266;48.756;9.246;2023-08-31T06:23:06;13.00;99.90
55648;DHT22;45266;48.756;9.246;2023-08-31T06:24:08;13.10;99.90
55648;DHT22;45266;48.756;9.246;2023-08-31T06:25:14;13.10;99.90
55648;DHT22;45266;48.756;9.246;2023-08-31T06:26:17;13.10;99.90
55648;DHT22;45266;48.756;9.246;2023-08-31T06:27:19;13.10;99.90
55648;DHT22;45266;48.756;9.246;2023-08-31T06:28:21;13.20;99.90
55648;DHT22;45266;48.756;9.246;2023-08-31T06:29:23;13.20;99.90
55648;DHT22;45266;48.756;9.246;2023-08-31T06:30:25;13.20;99.90
55648;DHT22;45266;48.756;9.246;2023-08-31T06:31:27;13.30;99.90
55648;DHT22;45266;48.756;9.246;2023-08-31T06:32:29;13.30;99.90
55648;DHT22;45266;48.756;9.246;2023-08-31T06:33:31;13.30;99.90
55648;DHT22;45266;48.756;9.246;2023-08-31T06:34:33;13.30;99.90
55648;DHT22;45266;48.756;9.246;2023-08-31T06:35:35;13.30;99.90
55648;DHT22;45266;48.756;9.246;2023-08-31T06:36:37;13.30;99.90
55648;DHT22;45266;48.756;9.246;2023-08-31T06:37:39;13.30;99.90
55648;DHT22;45266;48.756;9.246;2023-08-31T06:38:41;13.20;99.90
55648;DHT22;45266;48.756;9.246;2023-08-31T06:39:43;13.30;99.90
55648;DHT22;45266;48.756;9.246;2023-08-31T06:40:46;13.30;99.90
55648;DHT22;45266;48.756;9.246;2023-08-31T06:41:48;13.30;99.90
55648;DHT22;45266;48.756;9.246;2023-08-31T06:42:50;13.30;99.90
55648;DHT22;45266;48.756;9.246;2023-08-31T06:43:52;13.30;99.90